createdAt,value
2022-12-01T00:00:34.440Z,100245.69
2022-12-01T00:01:38.827Z,100242.09
2022-12-01T00:02:43.356Z,100244.28
2022-12-01T00:03:47.930Z,100241.67
2022-12-01T00:04:52.218Z,100240.75
2022-12-01T00:05:56.432Z,100248.3
2022-12-01T00:07:00.699Z,100249.44
2022-12-01T00:08:05.014Z,100241.26
2022-12-01T00:09:09.408Z,100247.79
2022-12-01T00:10:17.277Z,100241.36
2022-12-01T00:11:21.578Z,100245.18
2022-12-01T00:12:25.749Z,100247.59
2022-12-01T00:13:29.965Z,100244.92
2022-12-01T00:14:34.165Z,100236.33
2022-12-01T00:15:38.472Z,100240.08
2022-12-01T00:16:42.747Z,100245.78
2022-12-01T00:17:47.176Z,100238.84
2022-12-01T00:18:51.339Z,100241.1
2022-12-01T00:19:55.543Z,100236.58
2022-12-01T00:20:59.687Z,100242.59
2022-12-01T00:22:03.900Z,100241.27
2022-12-01T00:23:08.130Z,100234.58
2022-12-01T00:24:12.330Z,100234.83
2022-12-01T00:25:16.610Z,100243.69
2022-12-01T00:26:20.888Z,100244.92
2022-12-01T00:27:25.122Z,100242.66
2022-12-01T00:28:29.389Z,100237.16
2022-12-01T00:29:33.564Z,100245.69
2022-12-01T00:30:37.797Z,100240.66
2022-12-01T00:31:42.097Z,100248.02
2022-12-01T00:32:46.519Z,100249.03
2022-12-01T00:33:50.731Z,100249.54
2022-12-01T00:34:54.946Z,100248.42
2022-12-01T00:35:59.307Z,100253.62
2022-12-01T00:37:03.510Z,100247.5
2022-12-01T00:38:07.604Z,100250.27
2022-12-01T00:39:11.805Z,100254.45
2022-12-01T00:40:15.943Z,100253.2
2022-12-01T00:41:20.142Z,100254.8
2022-12-01T00:42:24.418Z,100251.87
2022-12-01T00:43:28.557Z,100251.77
2022-12-01T00:44:32.721Z,100258.2
2022-12-01T00:45:37.066Z,100255.88
2022-12-01T00:46:41.610Z,100251.27
2022-12-01T00:47:45.792Z,100251.36
2022-12-01T00:48:50.058Z,100252.38
2022-12-01T00:49:54.252Z,100255.2
2022-12-01T00:50:58.465Z,100255.2
2022-12-01T00:52:02.676Z,100249.92
2022-12-01T00:53:06.898Z,100245.84
2022-12-01T00:54:11.174Z,100250.94
2022-12-01T00:55:15.408Z,100254.54
2022-12-01T00:56:19.653Z,100247.19
2022-12-01T00:57:23.955Z,100248.11
2022-12-01T00:58:28.146Z,100251.7
2022-12-01T00:59:32.378Z,100250.27
2022-12-01T01:00:36.723Z,100242.76
2022-12-01T01:01:41.133Z,100247.85
2022-12-01T01:02:45.631Z,100243.02
2022-12-01T01:03:50.036Z,100247.19
2022-12-01T01:04:54.249Z,100245.24
2022-12-01T01:05:58.400Z,100250.53
2022-12-01T01:07:02.657Z,100242.5
2022-12-01T01:08:06.987Z,100241.9
2022-12-01T01:09:11.415Z,100243.02
2022-12-01T01:10:15.617Z,100237.06
2022-12-01T01:11:19.830Z,100232.16
2022-12-01T01:12:24.121Z,100230.21
2022-12-01T01:13:28.273Z,100230.56
2022-12-01T01:14:32.505Z,100239.34
2022-12-01T01:15:36.781Z,100225.23
2022-12-01T01:16:41.161Z,100224.3
2022-12-01T01:17:45.428Z,100227.48
2022-12-01T01:18:49.628Z,100220.82
2022-12-01T01:19:53.812Z,100224.66
2022-12-01T01:20:58.068Z,100224.82
2022-12-01T01:22:02.267Z,100220.48
2022-12-01T01:23:06.567Z,100212.6
2022-12-01T01:24:10.839Z,100215.3
2022-12-01T01:25:15.056Z,100214.54
2022-12-01T01:26:19.241Z,100210.45
2022-12-01T01:27:23.483Z,100205.76
2022-12-01T01:28:27.687Z,100208.51
2022-12-01T01:29:31.932Z,100214.17
2022-12-01T01:30:36.212Z,100201.88
2022-12-01T01:31:40.528Z,100202.73
2022-12-01T01:32:44.691Z,100209.98
2022-12-01T01:33:48.995Z,100210.15
2022-12-01T01:34:53.209Z,100202.86
2022-12-01T01:35:57.417Z,100202
2022-12-01T01:37:01.603Z,100204.77
2022-12-01T01:38:05.766Z,100204.69
2022-12-01T01:39:09.997Z,100212.53
2022-12-01T01:40:14.223Z,100203.26
2022-12-01T01:41:18.420Z,100211.97
2022-12-01T01:42:22.615Z,100202.52
2022-12-01T01:43:26.868Z,100207.03
2022-12-01T01:44:31.077Z,100210.89
2022-12-01T01:45:35.401Z,100210.89
2022-12-01T01:46:39.713Z,100209.7
2022-12-01T01:47:43.843Z,100211.62
2022-12-01T01:48:47.969Z,100211.55
2022-12-01T01:49:52.435Z,100202.02
2022-12-01T01:50:56.635Z,100205.63
2022-12-01T01:52:00.888Z,100207.05
2022-12-01T01:53:05.050Z,100205.11
2022-12-01T01:54:09.433Z,100203.45
2022-12-01T01:55:13.615Z,100197.17
2022-12-01T01:56:17.832Z,100194.39
2022-12-01T01:57:22.073Z,100192.89
2022-12-01T01:58:26.380Z,100190.63
2022-12-01T01:59:30.689Z,100188.71
2022-12-01T02:00:34.911Z,100192.2
2022-12-01T02:01:39.305Z,100189.7
2022-12-01T02:02:43.908Z,100196.48
2022-12-01T02:03:48.371Z,100193.36
2022-12-01T02:04:52.642Z,100194.36
2022-12-01T02:06:04.561Z,100198.36
2022-12-01T02:07:09.217Z,100185.72
2022-12-01T02:08:13.525Z,100152.89
2022-12-01T02:09:17.825Z,100192.32
2022-12-01T02:10:22.037Z,100197.86
2022-12-01T02:11:26.225Z,100184.7
2022-12-01T02:12:30.413Z,100198.02
2022-12-01T02:13:34.534Z,100201.36
2022-12-01T02:14:38.639Z,100196.83
2022-12-01T02:15:42.731Z,100191.57
2022-12-01T02:16:46.950Z,100197.36
2022-12-01T02:17:51.253Z,100200.79
2022-12-01T02:18:55.401Z,100192.09
2022-12-01T02:19:59.513Z,100195.19
2022-12-01T02:21:03.649Z,100190.09
2022-12-01T02:22:07.759Z,100194.11
2022-12-01T02:23:11.879Z,100195.38
2022-12-01T02:24:15.973Z,100186.66
2022-12-01T02:25:20.071Z,100198.62
2022-12-01T02:26:24.188Z,100199.2
2022-12-01T02:27:28.294Z,100199.03
2022-12-01T02:28:32.401Z,100197.27
2022-12-01T02:29:36.510Z,100199.67
2022-12-01T02:30:40.765Z,100206.63
2022-12-01T02:31:44.939Z,100208.45
2022-12-01T02:32:49.043Z,100196.91
2022-12-01T02:33:53.141Z,100199.5
2022-12-01T02:34:57.243Z,100197.31
2022-12-01T02:36:01.391Z,100198.73
2022-12-01T02:37:05.619Z,100198.07
2022-12-01T02:38:09.745Z,100204.91
2022-12-01T02:39:13.864Z,100201.5
2022-12-01T02:40:17.972Z,100200.23
2022-12-01T02:41:22.064Z,100189.22
2022-12-01T02:42:26.149Z,100192.38
2022-12-01T02:43:30.254Z,100199.01
2022-12-01T02:44:34.358Z,100193.23
2022-12-01T02:45:38.461Z,100189.39
2022-12-01T02:46:42.697Z,100192.98
2022-12-01T02:47:46.796Z,100183.53
2022-12-01T02:48:50.951Z,100195.08
2022-12-01T02:49:55.045Z,100191.84
2022-12-01T02:50:59.321Z,100184.7
2022-12-01T02:52:03.464Z,100184.05
2022-12-01T02:53:07.571Z,100183.37
2022-12-01T02:54:11.680Z,100185.02
2022-12-01T02:55:15.795Z,100185.13
2022-12-01T02:56:19.900Z,100179.59
2022-12-01T02:57:24.008Z,100183.61
2022-12-01T02:58:28.122Z,100179.18
2022-12-01T02:59:32.232Z,100175.33
2022-12-01T03:00:36.336Z,100174.47
2022-12-01T03:01:40.512Z,100185.37
2022-12-01T03:02:44.961Z,100177.08
2022-12-01T03:03:49.243Z,100179.41
2022-12-01T03:04:53.358Z,100178.49
2022-12-01T03:05:57.462Z,100176.98
2022-12-01T03:07:01.558Z,100176.57
2022-12-01T03:08:05.785Z,100176.64
2022-12-01T03:09:10.145Z,100177.47
2022-12-01T03:10:14.259Z,100170.5
2022-12-01T03:11:18.354Z,100176.87
2022-12-01T03:12:22.458Z,100178.31
2022-12-01T03:13:26.542Z,100175.02
2022-12-01T03:14:30.651Z,100179.08
2022-12-01T03:15:34.938Z,100176.85
2022-12-01T03:16:39.287Z,100184.55
2022-12-01T03:17:43.400Z,100180.88
2022-12-01T03:18:47.503Z,100179.09
2022-12-01T03:19:52.131Z,100178.78
2022-12-01T03:20:56.260Z,100173.94
2022-12-01T03:22:00.352Z,100182.02
2022-12-01T03:23:04.455Z,100179.09
2022-12-01T03:24:08.546Z,100179.3
2022-12-01T03:25:12.637Z,100169.33
2022-12-01T03:26:16.761Z,100174.78
2022-12-01T03:27:20.855Z,100176.81
2022-12-01T03:28:24.961Z,100178.98
2022-12-01T03:29:29.064Z,100180.41
2022-12-01T03:30:33.174Z,100181.41
2022-12-01T03:31:37.442Z,100169.86
2022-12-01T03:32:41.639Z,100176.56
2022-12-01T03:33:45.740Z,100170.52
2022-12-01T03:34:49.851Z,100173.88
2022-12-01T03:35:53.978Z,100166.56
2022-12-01T03:36:58.089Z,100163.89
2022-12-01T03:38:02.192Z,100174.27
2022-12-01T03:39:06.296Z,100166.89
2022-12-01T03:40:10.389Z,100164.35
2022-12-01T03:41:14.488Z,100164.12
2022-12-01T03:42:18.577Z,100159.34
2022-12-01T03:43:22.686Z,100152.2
2022-12-01T03:44:26.875Z,100154.12
2022-12-01T03:45:30.971Z,100155.5
2022-12-01T03:46:35.272Z,100151.48
2022-12-01T03:47:39.433Z,100157.67
2022-12-01T03:48:43.662Z,100153.55
2022-12-01T03:49:48.555Z,100152.63
2022-12-01T03:50:53.273Z,100152.55
2022-12-01T03:51:57.380Z,100147.74
2022-12-01T03:53:01.475Z,100143.83
2022-12-01T03:54:05.587Z,100141.05
2022-12-01T03:55:09.701Z,100155.14
2022-12-01T03:56:13.788Z,100147.34
2022-12-01T03:57:17.902Z,100145.75
2022-12-01T03:58:21.992Z,100147.58
2022-12-01T03:59:26.078Z,100146.45
2022-12-01T04:00:30.181Z,100139.61
2022-12-01T04:01:34.425Z,100151.98
2022-12-01T04:02:38.793Z,100144.59
2022-12-01T04:03:43.022Z,100149.91
2022-12-01T04:04:47.106Z,100143.45
2022-12-01T04:05:51.202Z,100137.77
2022-12-01T04:06:55.315Z,100146.95
2022-12-01T04:07:59.580Z,100149.02
2022-12-01T04:09:03.995Z,100150.77
2022-12-01T04:10:08.100Z,100142.83
2022-12-01T04:11:12.199Z,100145.03
2022-12-01T04:12:16.322Z,100149.39
2022-12-01T04:13:20.413Z,100146.95
2022-12-01T04:14:24.518Z,100147.58
2022-12-01T04:15:28.630Z,100150.25
2022-12-01T04:16:32.847Z,100147.68
2022-12-01T04:17:37.075Z,100137.41
2022-12-01T04:18:41.157Z,100144.34
2022-12-01T04:19:45.255Z,100138.95
2022-12-01T04:20:49.795Z,100144.66
2022-12-01T04:21:53.890Z,100131.7
2022-12-01T04:22:58.001Z,100142.91
2022-12-01T04:24:02.208Z,100131.8
2022-12-01T04:25:06.347Z,100134.79
2022-12-01T04:26:16.510Z,100141.94
2022-12-01T04:27:20.610Z,100145.62
2022-12-01T04:28:24.759Z,100146.3
2022-12-01T04:29:28.839Z,100142.04
2022-12-01T04:30:32.937Z,100144.66
2022-12-01T04:31:37.267Z,100144.23
2022-12-01T04:32:41.577Z,100139.32
2022-12-01T04:33:45.681Z,100138.56
2022-12-01T04:34:49.760Z,100142.34
2022-12-01T04:35:53.852Z,100143.44
2022-12-01T04:36:57.955Z,100144.71
2022-12-01T04:38:02.065Z,100087.84
2022-12-01T04:39:06.194Z,100146.47
2022-12-01T04:40:10.299Z,100142.55
2022-12-01T04:41:14.385Z,100143.98
2022-12-01T04:42:18.483Z,100141.06
2022-12-01T04:43:22.595Z,100150.27
2022-12-01T04:44:34.907Z,100149.62
2022-12-01T04:45:39.323Z,100146.86
2022-12-01T04:46:43.569Z,100148.96
2022-12-01T04:47:47.771Z,100155.24
2022-12-01T04:48:51.885Z,100154.52
2022-12-01T04:49:55.997Z,100161.94
2022-12-01T04:51:00.109Z,100157.2
2022-12-01T04:52:04.315Z,100153.77
2022-12-01T04:53:08.508Z,100148.33
2022-12-01T04:54:12.609Z,100155.44
2022-12-01T04:55:16.729Z,100155.03
2022-12-01T04:56:20.836Z,100154.72
2022-12-01T04:57:24.943Z,100157.8
2022-12-01T04:58:29.032Z,100158.8
2022-12-01T04:59:33.125Z,100153.09
2022-12-01T05:00:37.344Z,100154.85
2022-12-01T05:01:41.783Z,100156.26
2022-12-01T05:02:45.956Z,100157.77
2022-12-01T05:03:50.063Z,100157.45
2022-12-01T05:04:54.170Z,100154.27
2022-12-01T05:05:58.313Z,100149.52
2022-12-01T05:07:02.421Z,100159.37
2022-12-01T05:08:06.699Z,100151.7
2022-12-01T05:09:17.614Z,100151.44
2022-12-01T05:10:22.005Z,100153.77
2022-12-01T05:11:26.130Z,100157.3
2022-12-01T05:12:30.243Z,100151.88
2022-12-01T05:13:34.348Z,100158.98
2022-12-01T05:14:38.457Z,100157.3
2022-12-01T05:15:42.573Z,100159.16
2022-12-01T05:16:46.826Z,100153.72
2022-12-01T05:17:51.170Z,100155.41
2022-12-01T05:18:55.352Z,100153.72
2022-12-01T05:19:59.587Z,100155.16
2022-12-01T05:21:03.688Z,100152.41
2022-12-01T05:22:07.808Z,100156.57
2022-12-01T05:23:17.655Z,100160.11
2022-12-01T05:24:21.754Z,100157.34
2022-12-01T05:25:25.865Z,100163.47
2022-12-01T05:26:29.954Z,100166.05
2022-12-01T05:27:34.062Z,100159.86
2022-12-01T05:28:38.171Z,100157.45
2022-12-01T05:29:42.271Z,100155.18
2022-12-01T05:30:46.364Z,100160.17
2022-12-01T05:31:50.568Z,100164.19
2022-12-01T05:32:54.846Z,100160.17
2022-12-01T05:33:58.960Z,100161.52
2022-12-01T05:35:03.065Z,100157.5
2022-12-01T05:36:07.174Z,100165.95
2022-12-01T05:37:11.300Z,100164.12
2022-12-01T05:38:15.406Z,100164.02
2022-12-01T05:39:19.502Z,100161.44
2022-12-01T05:40:23.681Z,100166.8
2022-12-01T05:41:27.776Z,100174.91
2022-12-01T05:42:31.880Z,100166.63
2022-12-01T05:43:35.991Z,100169.65
2022-12-01T05:44:40.100Z,100170.16
2022-12-01T05:45:44.315Z,100170.23
2022-12-01T05:46:48.493Z,100170.33
2022-12-01T05:47:52.608Z,100169.5
2022-12-01T05:48:56.745Z,100173.59
2022-12-01T05:50:06.468Z,100170.84
2022-12-01T05:51:10.560Z,100172.77
2022-12-01T05:52:14.655Z,100175.51
2022-12-01T05:53:18.815Z,100171.59
2022-12-01T05:54:22.913Z,100169.02
2022-12-01T05:55:27.009Z,100172.69
2022-12-01T05:56:31.118Z,100168.77
2022-12-01T05:57:35.221Z,100178.14
2022-12-01T05:58:39.303Z,100176.04
2022-12-01T05:59:43.433Z,100174.8
2022-12-01T06:00:47.553Z,100182.84
2022-12-01T06:01:51.789Z,100179.3
2022-12-01T06:02:55.994Z,100179.25
2022-12-01T06:04:00.289Z,100181.73
2022-12-01T06:05:04.567Z,100182.82
2022-12-01T06:06:08.690Z,100188.53
2022-12-01T06:07:12.810Z,100187.59
2022-12-01T06:08:16.899Z,100182.58
2022-12-01T06:09:21.009Z,100184.61
2022-12-01T06:10:25.135Z,100183.75
2022-12-01T06:11:29.236Z,100187.45
2022-12-01T06:12:33.325Z,100187.94
2022-12-01T06:13:37.464Z,100187.94
2022-12-01T06:14:41.551Z,100185.69
2022-12-01T06:15:45.761Z,100188.03
2022-12-01T06:16:49.977Z,100189.88
2022-12-01T06:17:54.258Z,100187.27
2022-12-01T06:18:58.368Z,100183.11
2022-12-01T06:20:02.473Z,100184.28
2022-12-01T06:21:06.603Z,100185.69
2022-12-01T06:22:10.709Z,100182.86
2022-12-01T06:23:14.812Z,100183.52
2022-12-01T06:24:18.928Z,100191.05
2022-12-01T06:25:23.035Z,100185.64
2022-12-01T06:26:27.197Z,100183.2
2022-12-01T06:27:31.302Z,100184.53
2022-12-01T06:28:35.414Z,100190.06
2022-12-01T06:29:43.166Z,100193.73
2022-12-01T06:30:47.268Z,100189.81
2022-12-01T06:31:51.550Z,100193.42
2022-12-01T06:32:55.744Z,100184.38
2022-12-01T06:33:59.876Z,100190.74
2022-12-01T06:35:04.040Z,100187.89
2022-12-01T06:36:08.137Z,100184.12
2022-12-01T06:37:12.288Z,100186.8
2022-12-01T06:38:16.385Z,100185.98
2022-12-01T06:39:20.503Z,100191.42
2022-12-01T06:40:24.602Z,100192.31
2022-12-01T06:41:28.798Z,100189.83
2022-12-01T06:42:32.925Z,100186.64
2022-12-01T06:43:37.015Z,100198.28
2022-12-01T06:44:41.118Z,100185.38
2022-12-01T06:45:45.550Z,100184.64
2022-12-01T06:46:49.733Z,100184.46
2022-12-01T06:47:53.851Z,100185.64
2022-12-01T06:48:57.950Z,100191.92
2022-12-01T06:50:02.048Z,100176.63
2022-12-01T06:51:06.139Z,100183.22
2022-12-01T06:52:10.222Z,100182.39
2022-12-01T06:53:14.337Z,100187.91
2022-12-01T06:54:18.459Z,100183.9
2022-12-01T06:55:22.626Z,100187.91
2022-12-01T06:56:27.569Z,100188.66
2022-12-01T06:57:32.154Z,100193.78
2022-12-01T06:58:37.091Z,100185.5
2022-12-01T06:59:42.448Z,100183.05
2022-12-01T07:00:52.943Z,100182.23
2022-12-01T07:01:57.569Z,100187.93
2022-12-01T07:03:02.041Z,100190.19
2022-12-01T07:04:06.148Z,100193.45
2022-12-01T07:05:10.281Z,100194.13
2022-12-01T07:06:14.366Z,100194.54
2022-12-01T07:07:18.470Z,100198.62
2022-12-01T07:08:22.763Z,100200.05
2022-12-01T07:09:26.927Z,100191.92
2022-12-01T07:10:31.067Z,100197.11
2022-12-01T07:11:35.163Z,100194.54
2022-12-01T07:12:39.266Z,100194.8
2022-12-01T07:13:43.390Z,100189.27
2022-12-01T07:14:47.488Z,100195.95
2022-12-01T07:15:51.577Z,100185.41
2022-12-01T07:16:55.881Z,100189.36
2022-12-01T07:18:00.154Z,100189.69
2022-12-01T07:19:04.276Z,100182.75
2022-12-01T07:20:08.402Z,100187.36
2022-12-01T07:21:12.507Z,100190.2
2022-12-01T07:22:16.601Z,100193.13
2022-12-01T07:23:20.703Z,100190.86
2022-12-01T07:24:24.878Z,100195.3
2022-12-01T07:25:28.984Z,100187.62
2022-12-01T07:26:33.109Z,100194.47
2022-12-01T07:27:37.241Z,100180.99
2022-12-01T07:28:41.376Z,100190.61
2022-12-01T07:29:45.478Z,100186.03
2022-12-01T07:30:50.249Z,100183.51
2022-12-01T07:31:54.451Z,100191.64
2022-12-01T07:32:58.567Z,100193.04
2022-12-01T07:34:02.841Z,100183.77
2022-12-01T07:35:06.962Z,100195.22
2022-12-01T07:36:11.266Z,100186.2
2022-12-01T07:37:15.418Z,100165.38
2022-12-01T07:38:23.211Z,100193.96
2022-12-01T07:39:27.315Z,100188.11
2022-12-01T07:40:31.459Z,100155.83
2022-12-01T07:41:35.701Z,100191.29
2022-12-01T07:42:39.833Z,100191.45
2022-12-01T07:43:43.928Z,100189.34
2022-12-01T07:44:48.017Z,100186.52
2022-12-01T07:45:52.215Z,100189.19
2022-12-01T07:46:56.393Z,100190.38
2022-12-01T07:48:00.510Z,100192.72
2022-12-01T07:49:04.627Z,100189.28
2022-12-01T07:50:08.764Z,100185.19
2022-12-01T07:51:12.951Z,100189.13
2022-12-01T07:52:17.061Z,100186.11
2022-12-01T07:53:21.169Z,100193.05
2022-12-01T07:54:25.308Z,100184.87
2022-12-01T07:55:29.429Z,100191.71
2022-12-01T07:56:33.583Z,100198.5
2022-12-01T07:57:37.796Z,100193.97
2022-12-01T07:58:41.905Z,100190.28
2022-12-01T07:59:46.141Z,100195.58
2022-12-01T08:00:50.773Z,100188.12
2022-12-01T08:01:55.038Z,100193.63
2022-12-01T08:02:59.438Z,100195.47
2022-12-01T08:04:03.711Z,100194.64
2022-12-01T08:05:07.819Z,100187.7
2022-12-01T08:06:11.941Z,100189.78
2022-12-01T08:07:16.076Z,100194.81
2022-12-01T08:08:20.351Z,100192.2
2022-12-01T08:09:24.513Z,100189.95
2022-12-01T08:10:28.707Z,100193.63
2022-12-01T08:11:32.867Z,100199.91
2022-12-01T08:12:37.016Z,100194.56
2022-12-01T08:13:41.125Z,100194.56
2022-12-01T08:14:45.223Z,100194.54
2022-12-01T08:15:49.463Z,100192.63
2022-12-01T08:16:53.664Z,100191.27
2022-12-01T08:17:57.770Z,100198.9
2022-12-01T08:19:01.899Z,100199.83
2022-12-01T08:20:06.000Z,100197.13
2022-12-01T08:21:10.093Z,100199.89
2022-12-01T08:22:14.427Z,100203.66
2022-12-01T08:23:18.560Z,100205.24
2022-12-01T08:24:22.878Z,100208.33
2022-12-01T08:25:26.969Z,100205.3
2022-12-01T08:26:31.052Z,100201.3
2022-12-01T08:27:35.178Z,100211.07
